KSLO/SLO METAR and TAF weather

Enter ICAO airport designator
Station Type Date Time Source
KSLO METAR 2019/12/12 16:55 UTC NOAA

KSLO 121655Z AUTO 18007KT 10SM CLR 07/M02 A3038 RMK AO2 T00671016


Station Type Date Time Source
KSLO Decoded METAR 2019/12/12 16:55 UTC NOAA

Salem, Salem-Leckrone Airport, IL, United States (KSLO) 38-38-34N 088-57-51W 174M
Dec 12, 2019 - 11:55 AM EST / 2019.12.12 1655 UTC
Wind: from the S (180 degrees) at 8 MPH (7 KT):0
Visibility: 10 mile(s):0
Sky conditions: clear
Temperature: 44.1 F (6.7 C)
Dew Point: 29.1 F (-1.6 C)
Relative Humidity: 55%
Pressure (altimeter): 30.38 in. Hg (1028 hPa)
ob: KSLO 121655Z AUTO 18007KT 10SM CLR 07/M02 A3038 RMK AO2 T00671016
cycle: 17

Station Type Date Time Source
KSLO TAF UTC NOAA

Error!

Example: see airport list